createdAt,value
2018-09-01T00:00:04.138Z,14.83
2018-09-01T00:01:04.389Z,14.83
2018-09-01T00:02:04.381Z,14.92
2018-09-01T00:03:04.377Z,14.92
2018-09-01T00:04:04.115Z,14.98
2018-09-01T00:05:04.116Z,14.95
2018-09-01T00:06:04.103Z,14.94
2018-09-01T00:07:04.097Z,14.94
2018-09-01T00:08:04.091Z,14.95
2018-09-01T00:09:04.341Z,14.89
2018-09-01T00:10:04.338Z,14.91
2018-09-01T00:11:04.388Z,14.92
2018-09-01T00:12:04.068Z,14.86
2018-09-01T00:13:04.314Z,14.86
2018-09-01T00:14:04.315Z,14.84
2018-09-01T00:15:03.797Z,14.91
2018-09-01T00:16:04.294Z,14.84
2018-09-01T00:17:04.036Z,14.86
2018-09-01T00:18:04.326Z,14.86
2018-09-01T00:19:04.276Z,14.78
2018-09-01T00:20:04.269Z,14.78
2018-09-01T00:21:03.760Z,14.72
2018-09-01T00:22:04.004Z,14.62
2018-09-01T00:23:03.999Z,14.69
2018-09-01T00:24:03.993Z,14.62
2018-09-01T00:25:03.993Z,14.57
2018-09-01T00:26:03.980Z,14.69
2018-09-01T00:27:03.974Z,14.52
2018-09-01T00:28:03.968Z,14.51
2018-09-01T00:29:03.980Z,14.5
2018-09-01T00:30:04.215Z,14.47
2018-09-01T00:31:03.950Z,14.42
2018-09-01T00:32:04.195Z,14.43
2018-09-01T00:33:03.936Z,14.47
2018-09-01T00:34:04.194Z,14.45
2018-09-01T00:35:03.928Z,14.42
2018-09-01T00:36:03.919Z,14.35
2018-09-01T00:37:03.912Z,14.35
2018-09-01T00:38:03.905Z,14.36
2018-09-01T00:39:03.900Z,14.5
2018-09-01T00:40:03.891Z,14.43
2018-09-01T00:41:03.892Z,14.43
2018-09-01T00:42:03.880Z,14.4
2018-09-01T00:43:04.128Z,14.35
2018-09-01T00:44:04.134Z,14.47
2018-09-01T00:45:03.861Z,14.43
2018-09-01T00:46:03.856Z,14.37
2018-09-01T00:47:04.106Z,14.42
2018-09-01T00:48:03.842Z,14.37
2018-09-01T00:49:04.091Z,14.42
2018-09-01T00:50:04.105Z,14.45
2018-09-01T00:51:04.081Z,14.42
2018-09-01T00:52:03.819Z,14.43
2018-09-01T00:53:04.063Z,14.43
2018-09-01T00:54:04.063Z,14.51
2018-09-01T00:55:03.810Z,14.52
2018-09-01T00:56:04.042Z,14.42
2018-09-01T00:57:03.790Z,14.47
2018-09-01T00:58:03.778Z,14.47
2018-09-01T00:59:04.030Z,14.46
2018-09-01T01:00:04.022Z,14.5
2018-09-01T01:01:03.761Z,14.45
2018-09-01T01:02:04.256Z,14.55
2018-09-01T01:03:03.750Z,14.51
2018-09-01T01:04:03.741Z,14.51
2018-09-01T01:05:03.748Z,14.51
2018-09-01T01:06:03.986Z,14.55
2018-09-01T01:07:03.980Z,14.51
2018-09-01T01:08:03.965Z,14.5
2018-09-01T01:09:03.709Z,14.55
2018-09-01T01:10:03.954Z,14.54
2018-09-01T01:11:03.951Z,14.57
2018-09-01T01:12:03.945Z,14.51
2018-09-01T01:13:03.940Z,14.52
2018-09-01T01:14:03.931Z,14.54
2018-09-01T01:15:03.672Z,14.5
2018-09-01T01:16:03.917Z,14.57
2018-09-01T01:17:03.658Z,14.54
2018-09-01T01:18:03.651Z,14.58
2018-09-01T01:19:03.906Z,14.51
2018-09-01T01:20:03.890Z,14.47
2018-09-01T01:21:03.633Z,14.52
2018-09-01T01:22:03.636Z,14.51
2018-09-01T01:23:03.623Z,14.45
2018-09-01T01:24:03.615Z,14.42
2018-09-01T01:25:03.865Z,14.45
2018-09-01T01:26:03.853Z,14.45
2018-09-01T01:27:03.848Z,14.45
2018-09-01T01:28:03.853Z,14.46
2018-09-01T01:29:03.582Z,14.35
2018-09-01T01:30:03.576Z,14.36
2018-09-01T01:31:03.830Z,14.35
2018-09-01T01:32:03.562Z,14.27
2018-09-01T01:33:03.808Z,14.29
2018-09-01T01:34:03.802Z,14.28
2018-09-01T01:35:03.290Z,14.2
2018-09-01T01:36:03.536Z,14.22
2018-09-01T01:37:03.530Z,14.18
2018-09-01T01:38:03.774Z,14.15
2018-09-01T01:39:03.517Z,14.04
2018-09-01T01:40:03.513Z,14.07
2018-09-01T01:41:03.758Z,13.92
2018-09-01T01:42:03.749Z,13.92
2018-09-01T01:43:03.493Z,13.88
2018-09-01T01:44:03.742Z,13.82
2018-09-01T01:45:03.733Z,13.73
2018-09-01T01:46:03.472Z,13.67
2018-09-01T01:47:03.716Z,13.64
2018-09-01T01:48:03.717Z,13.57
2018-09-01T01:49:03.703Z,13.57
2018-09-01T01:50:03.700Z,13.55
2018-09-01T01:51:03.690Z,13.52
2018-09-01T01:52:03.684Z,13.49
2018-09-01T01:53:03.425Z,13.39
2018-09-01T01:54:03.668Z,13.39
2018-09-01T01:55:03.669Z,13.38
2018-09-01T01:56:03.673Z,13.26
2018-09-01T01:57:03.405Z,13.23
2018-09-01T01:58:03.644Z,13.25
2018-09-01T01:59:03.636Z,13.2
2018-09-01T02:00:03.628Z,13.22
2018-09-01T02:01:03.375Z,13.14
2018-09-01T02:02:03.361Z,13.07
2018-09-01T02:03:03.621Z,13.08
2018-09-01T02:04:03.850Z,13.03
2018-09-01T02:05:03.342Z,13.03
2018-09-01T02:06:03.334Z,12.97
2018-09-01T02:07:03.588Z,13
2018-09-01T02:08:03.571Z,12.9
2018-09-01T02:09:03.564Z,12.85
2018-09-01T02:10:03.563Z,12.9
2018-09-01T02:11:03.550Z,12.92
2018-09-01T02:12:03.547Z,12.82
2018-09-01T02:13:03.536Z,12.71
2018-09-01T02:14:03.535Z,12.75
2018-09-01T02:15:03.526Z,12.7
2018-09-01T02:16:03.514Z,12.75
2018-09-01T02:17:03.518Z,12.68
2018-09-01T02:18:03.501Z,12.65
2018-09-01T02:19:03.491Z,12.64
2018-09-01T02:20:03.246Z,12.6
2018-09-01T02:21:03.477Z,12.53
2018-09-01T02:22:03.474Z,12.56
2018-09-01T02:23:03.462Z,12.46
2018-09-01T02:24:03.459Z,12.52
2018-09-01T02:25:03.447Z,12.47
2018-09-01T02:26:03.450Z,12.46
2018-09-01T02:27:03.436Z,12.46
2018-09-01T02:28:03.430Z,12.45
2018-09-01T02:29:03.431Z,12.39
2018-09-01T02:30:03.441Z,12.42
2018-09-01T02:31:03.407Z,12.35
2018-09-01T02:32:03.399Z,12.37
2018-09-01T02:33:03.391Z,12.46
2018-09-01T02:34:03.381Z,12.34
2018-09-01T02:35:03.627Z,12.37
2018-09-01T02:36:03.115Z,12.29
2018-09-01T02:37:03.358Z,12.37
2018-09-01T02:38:03.391Z,12.28
2018-09-01T02:39:03.343Z,12.28
2018-09-01T02:40:03.336Z,12.24
2018-09-01T02:41:03.328Z,12.17
2018-09-01T02:42:03.329Z,12.19
2018-09-01T02:43:03.313Z,12.16
2018-09-01T02:44:03.309Z,12.2
2018-09-01T02:45:03.297Z,12.12
2018-09-01T02:46:03.036Z,12.19
2018-09-01T02:47:03.283Z,12.02
2018-09-01T02:48:03.281Z,12.02
2018-09-01T02:49:03.265Z,12.04
2018-09-01T02:50:03.033Z,12.02
2018-09-01T02:51:03.252Z,12.09
2018-09-01T02:52:03.257Z,12.01
2018-09-01T02:53:02.991Z,12.05
2018-09-01T02:54:03.231Z,12.01
2018-09-01T02:55:03.222Z,11.98
2018-09-01T02:56:03.214Z,11.98
2018-09-01T02:57:03.204Z,11.9
2018-09-01T02:58:03.202Z,11.86
2018-09-01T02:59:03.189Z,11.91
2018-09-01T03:00:02.927Z,11.8
2018-09-01T03:01:03.177Z,11.9
2018-09-01T03:02:03.185Z,11.86
2018-09-01T03:03:03.161Z,11.88
2018-09-01T03:04:03.150Z,11.85
2018-09-01T03:05:03.144Z,11.79
2018-09-01T03:06:03.133Z,11.79
2018-09-01T03:07:03.127Z,11.67
2018-09-01T03:08:02.864Z,11.76
2018-09-01T03:09:03.113Z,11.72
2018-09-01T03:10:03.105Z,11.73
2018-09-01T03:11:03.095Z,11.67
2018-09-01T03:12:03.093Z,11.62
2018-09-01T03:13:03.081Z,11.65
2018-09-01T03:14:03.069Z,11.62
2018-09-01T03:15:03.068Z,11.55
2018-09-01T03:16:03.062Z,11.58
2018-09-01T03:17:03.045Z,11.58
2018-09-01T03:18:03.042Z,11.57
2018-09-01T03:19:03.029Z,11.69
2018-09-01T03:20:03.023Z,11.51
2018-09-01T03:21:03.014Z,11.57
2018-09-01T03:22:03.006Z,11.52
2018-09-01T03:23:02.997Z,11.55
2018-09-01T03:24:02.990Z,11.55
2018-09-01T03:25:02.980Z,11.46
2018-09-01T03:26:02.970Z,11.51
2018-09-01T03:27:03.266Z,11.44
2018-09-01T03:28:02.957Z,11.44
2018-09-01T03:29:02.952Z,11.43
2018-09-01T03:30:02.689Z,11.35
2018-09-01T03:31:02.932Z,11.4
2018-09-01T03:32:02.937Z,11.46
2018-09-01T03:33:02.919Z,11.39
2018-09-01T03:34:02.916Z,11.4
2018-09-01T03:35:02.653Z,11.4
2018-09-01T03:36:02.890Z,11.4
2018-09-01T03:37:02.631Z,11.39
2018-09-01T03:38:02.873Z,11.36
2018-09-01T03:39:02.868Z,11.44
2018-09-01T03:40:02.872Z,11.39
2018-09-01T03:41:02.855Z,11.42
2018-09-01T03:42:02.846Z,11.29
2018-09-01T03:43:02.580Z,11.42
2018-09-01T03:44:02.824Z,11.33
2018-09-01T03:45:02.577Z,11.28
2018-09-01T03:46:02.563Z,11.27
2018-09-01T03:47:02.801Z,11.27
2018-09-01T03:48:02.584Z,11.25
2018-09-01T03:49:02.535Z,11.32
2018-09-01T03:50:02.779Z,11.28
2018-09-01T03:51:02.778Z,11.22
2018-09-01T03:52:02.771Z,11.28
2018-09-01T03:53:02.252Z,11.29
2018-09-01T03:54:02.744Z,11.27
2018-09-01T03:55:02.744Z,11.29
2018-09-01T03:56:02.481Z,11.21
2018-09-01T03:57:02.717Z,11.27
2018-09-01T03:58:02.710Z,11.22
2018-09-01T03:59:02.702Z,11.25
2018-09-01T04:00:02.692Z,11.18
2018-09-01T04:01:02.712Z,11.15
2018-09-01T04:02:02.425Z,11.11
2018-09-01T04:03:02.672Z,11.1
2018-09-01T04:04:02.666Z,11.1
2018-09-01T04:05:02.662Z,11.09
2018-09-01T04:06:02.642Z,11.06
2018-09-01T04:07:02.634Z,11.11
2018-09-01T04:08:02.377Z,11.04
2018-09-01T04:09:02.875Z,11.02
2018-09-01T04:10:02.620Z,11.02
2018-09-01T04:11:02.601Z,10.96
2018-09-01T04:12:02.591Z,11
2018-09-01T04:13:02.332Z,11.07
2018-09-01T04:14:02.576Z,10.88
2018-09-01T04:15:02.584Z,10.91
2018-09-01T04:16:02.559Z,10.91
2018-09-01T04:17:02.552Z,11.03
2018-09-01T04:18:02.546Z,11.04
2018-09-01T04:19:02.531Z,11.02
2018-09-01T04:20:02.527Z,11.03
2018-09-01T04:21:02.515Z,11.06
2018-09-01T04:22:02.256Z,11.1
2018-09-01T04:23:02.252Z,11.09
2018-09-01T04:24:02.504Z,11.1
2018-09-01T04:25:02.499Z,11.15
2018-09-01T04:26:02.491Z,11.09
2018-09-01T04:27:02.467Z,11.1
2018-09-01T04:28:02.462Z,11.1
2018-09-01T04:29:02.456Z,11.07
2018-09-01T04:30:02.190Z,11.1
2018-09-01T04:31:02.453Z,11.1
2018-09-01T04:32:02.653Z,11.1
2018-09-01T04:33:02.415Z,11.09
2018-09-01T04:34:02.409Z,11.17
2018-09-01T04:35:02.407Z,11.22
2018-09-01T04:36:02.394Z,11.25
2018-09-01T04:37:02.136Z,11.27
2018-09-01T04:38:02.131Z,11.29
2018-09-01T04:39:02.117Z,11.29
2018-09-01T04:40:02.355Z,11.33
2018-09-01T04:41:02.352Z,11.4
2018-09-01T04:42:02.087Z,11.36
2018-09-01T04:43:02.332Z,11.47
2018-09-01T04:44:02.073Z,11.55
2018-09-01T04:45:02.316Z,11.65
2018-09-01T04:46:02.306Z,11.8
2018-09-01T04:47:02.450Z,11.79
2018-09-01T04:48:02.293Z,11.95
2018-09-01T04:49:02.032Z,12.14
2018-09-01T04:50:02.279Z,12.14
2018-09-01T04:51:02.019Z,12.23
2018-09-01T04:52:02.260Z,12.31
2018-09-01T04:53:02.251Z,12.47
2018-09-01T04:54:02.245Z,12.56
2018-09-01T04:55:02.255Z,12.75
2018-09-01T04:56:02.231Z,12.75
2018-09-01T04:57:02.240Z,13
2018-09-01T04:58:02.217Z,13.1
2018-09-01T04:59:02.213Z,13.25
2018-09-01T05:00:02.203Z,13.44
2018-09-01T05:01:02.736Z,13.55
2018-09-01T05:02:01.935Z,13.69
2018-09-01T05:03:01.933Z,13.88
2018-09-01T05:04:02.182Z,14.12
2018-09-01T05:05:02.173Z,14.21
2018-09-01T05:06:02.163Z,14.36
2018-09-01T05:07:01.910Z,14.5
2018-09-01T05:08:02.159Z,14.61
2018-09-01T05:09:02.153Z,14.7
2018-09-01T05:10:02.141Z,14.8
2018-09-01T05:11:02.387Z,14.98
2018-09-01T05:12:02.136Z,15.1
2018-09-01T05:13:02.119Z,15.19
2018-09-01T05:14:01.863Z,15.32
2018-09-01T05:15:02.119Z,15.5
2018-09-01T05:16:02.102Z,15.51
2018-09-01T05:17:02.104Z,15.68
2018-09-01T05:18:02.100Z,15.92
2018-09-01T05:19:02.091Z,15.96
2018-09-01T05:20:02.083Z,16.21
2018-09-01T05:21:01.827Z,16.38
2018-09-01T05:22:01.822Z,16.56
2018-09-01T05:23:02.067Z,16.82
2018-09-01T05:24:02.403Z,16.97
2018-09-01T05:25:02.062Z,17.14
2018-09-01T05:26:02.061Z,17.28
2018-09-01T05:27:02.051Z,17.44
2018-09-01T05:28:02.050Z,17.62
2018-09-01T05:29:02.042Z,17.81
2018-09-01T05:30:02.040Z,17.87
2018-09-01T05:31:02.037Z,18.12
2018-09-01T05:32:02.039Z,18.26
2018-09-01T05:33:01.778Z,18.47
2018-09-01T05:34:02.037Z,18.57
2018-09-01T05:35:02.027Z,18.81
2018-09-01T05:36:02.021Z,18.94
2018-09-01T05:37:02.024Z,19.13
2018-09-01T05:38:02.025Z,19.36
2018-09-01T05:39:01.761Z,19.55
2018-09-01T05:40:02.010Z,19.78
2018-09-01T05:41:02.008Z,19.92
2018-09-01T05:42:02.016Z,20.23
2018-09-01T05:43:02.012Z,20.36
2018-09-01T05:44:02.006Z,20.64
2018-09-01T05:45:01.750Z,20.87
2018-09-01T05:46:01.998Z,20.99
2018-09-01T05:47:02.001Z,21.21
2018-09-01T05:48:01.997Z,21.37
2018-09-01T05:49:01.994Z,21.65
2018-09-01T05:50:01.996Z,21.82
2018-09-01T05:51:02.004Z,22.02
2018-09-01T05:52:01.993Z,22.28
2018-09-01T05:53:01.995Z,22.51
2018-09-01T05:54:01.999Z,22.65
2018-09-01T05:55:01.741Z,22.92
2018-09-01T05:56:02.002Z,23.02
2018-09-01T05:57:01.755Z,23.28
2018-09-01T05:58:02.001Z,23.51
2018-09-01T05:59:02.007Z,23.8
2018-09-01T06:00:02.000Z,23.98
2018-09-01T06:01:02.013Z,24.08
2018-09-01T06:02:01.746Z,24.39
2018-09-01T06:03:02.009Z,24.58
2018-09-01T06:04:02.016Z,24.81
2018-09-01T06:05:02.006Z,24.93
2018-09-01T06:06:02.284Z,25.13
2018-09-01T06:07:01.762Z,25.18
2018-09-01T06:08:02.011Z,25.32
2018-09-01T06:09:02.019Z,25.6
2018-09-01T06:10:02.023Z,25.7
2018-09-01T06:11:02.022Z,26.01
2018-09-01T06:12:02.025Z,26.12
2018-09-01T06:13:01.777Z,26.29
2018-09-01T06:14:02.085Z,26.58
2018-09-01T06:15:02.040Z,26.8
2018-09-01T06:16:02.045Z,26.94
2018-09-01T06:17:02.047Z,27.14
2018-09-01T06:18:02.322Z,27.31
2018-09-01T06:19:02.056Z,27.51
2018-09-01T06:20:01.808Z,27.63
2018-09-01T06:21:01.816Z,27.72
2018-09-01T06:22:01.568Z,27.96
2018-09-01T06:23:02.077Z,28.11
2018-09-01T06:24:02.030Z,28.27
2018-09-01T06:25:02.099Z,28.33
2018-09-01T06:26:02.095Z,28.49
2018-09-01T06:27:02.100Z,28.54
2018-09-01T06:28:02.107Z,28.56
2018-09-01T06:29:02.117Z,28.76
2018-09-01T06:30:01.921Z,28.93
2018-09-01T06:31:01.874Z,28.88
2018-09-01T06:32:02.144Z,29.09
2018-09-01T06:33:02.106Z,29.09
2018-09-01T06:34:02.151Z,29.08
2018-09-01T06:35:02.159Z,29.18
2018-09-01T06:36:02.162Z,29.26
2018-09-01T06:37:02.188Z,29.42
2018-09-01T06:38:02.233Z,29.46
2018-09-01T06:39:02.188Z,29.58
2018-09-01T06:40:02.193Z,29.63
2018-09-01T06:41:02.200Z,29.71
2018-09-01T06:42:02.212Z,29.82
2018-09-01T06:43:02.119Z,29.94
2018-09-01T06:44:02.223Z,30.04
2018-09-01T06:45:02.491Z,30.19
2018-09-01T06:46:02.238Z,30.35
2018-09-01T06:47:01.996Z,30.47
2018-09-01T06:48:02.027Z,30.53
2018-09-01T06:49:02.267Z,30.62
2018-09-01T06:50:02.022Z,30.6
2018-09-01T06:51:02.028Z,30.6
2018-09-01T06:52:02.043Z,30.47
2018-09-01T06:53:02.299Z,30.45
2018-09-01T06:54:01.807Z,30.42
2018-09-01T06:55:02.320Z,30.27
2018-09-01T06:56:02.325Z,30.22
2018-09-01T06:57:02.337Z,30.11
2018-09-01T06:58:02.345Z,30.17
2018-09-01T06:59:02.352Z,30.1
2018-09-01T07:00:02.369Z,30.2
2018-09-01T07:01:02.119Z,30.26
2018-09-01T07:02:02.384Z,30.37
2018-09-01T07:03:02.137Z,30.45
2018-09-01T07:04:02.149Z,30.54
2018-09-01T07:05:01.902Z,30.73
2018-09-01T07:06:02.421Z,31.02
2018-09-01T07:07:02.430Z,31.23
2018-09-01T07:08:02.446Z,31.41
2018-09-01T07:09:02.446Z,31.65
2018-09-01T07:10:02.205Z,31.91
2018-09-01T07:11:02.463Z,32.01
2018-09-01T07:12:02.481Z,32.23
2018-09-01T07:13:02.481Z,32.38
2018-09-01T07:14:02.491Z,32.55
2018-09-01T07:15:02.505Z,32.6
2018-09-01T07:16:02.766Z,32.75
2018-09-01T07:17:02.523Z,32.78
2018-09-01T07:18:02.537Z,32.88
2018-09-01T07:19:02.550Z,33.01
2018-09-01T07:20:02.553Z,33.11
2018-09-01T07:21:02.313Z,33.14
2018-09-01T07:22:02.324Z,33.14
2018-09-01T07:23:02.330Z,33.21
2018-09-01T07:24:02.600Z,33.22
2018-09-01T07:25:02.360Z,33.16
2018-09-01T07:26:02.365Z,33.34
2018-09-01T07:27:02.373Z,33.29
2018-09-01T07:28:02.635Z,33.21
2018-09-01T07:29:02.395Z,33.16
2018-09-01T07:30:02.781Z,33.11
2018-09-01T07:31:03.469Z,32.93
2018-09-01T07:32:02.426Z,32.88
2018-09-01T07:33:02.686Z,32.85
2018-09-01T07:34:02.696Z,32.85
2018-09-01T07:35:02.708Z,32.85
2018-09-01T07:36:02.771Z,32.84
2018-09-01T07:37:02.731Z,32.89
2018-09-01T07:38:02.740Z,32.84
2018-09-01T07:39:02.496Z,32.62
2018-09-01T07:40:02.510Z,32.66
2018-09-01T07:41:02.264Z,32.6
2018-09-01T07:42:02.529Z,32.5
2018-09-01T07:43:02.790Z,32.4
2018-09-01T07:44:02.549Z,32.21
2018-09-01T07:45:02.573Z,32.08
2018-09-01T07:46:02.567Z,31.95
2018-09-01T07:47:03.087Z,31.86
2018-09-01T07:48:02.838Z,31.78
2018-09-01T07:49:02.849Z,31.5
2018-09-01T07:50:03.108Z,31.26
2018-09-01T07:51:02.624Z,31.09
2018-09-01T07:52:02.628Z,30.83
2018-09-01T07:53:02.889Z,30.72
2018-09-01T07:54:02.899Z,30.57
2018-09-01T07:55:02.909Z,30.61
2018-09-01T07:56:02.859Z,30.61
2018-09-01T07:57:02.950Z,30.57
2018-09-01T07:58:02.688Z,30.64
2018-09-01T07:59:02.948Z,30.6
2018-09-01T08:00:02.959Z,30.61
2018-09-01T08:01:02.717Z,30.6
2018-09-01T08:02:02.976Z,30.39
2018-09-01T08:03:02.989Z,29.97
2018-09-01T08:04:02.743Z,29.68
2018-09-01T08:05:03.016Z,29.52
2018-09-01T08:06:03.019Z,29.41
2018-09-01T08:07:03.030Z,29.18
2018-09-01T08:08:03.055Z,29
2018-09-01T08:09:03.045Z,28.86
2018-09-01T08:10:03.051Z,28.55
2018-09-01T08:11:03.068Z,28.4
2018-09-01T08:12:03.071Z,28.25
2018-09-01T08:13:03.081Z,28
2018-09-01T08:14:03.852Z,27.97
2018-09-01T08:15:03.101Z,28
2018-09-01T08:16:03.112Z,27.99
2018-09-01T08:17:03.119Z,27.84
2018-09-01T08:18:03.375Z,27.78
2018-09-01T08:19:03.148Z,27.47
2018-09-01T08:20:03.146Z,27.25
2018-09-01T08:21:03.157Z,27
2018-09-01T08:22:03.164Z,26.82
2018-09-01T08:23:03.173Z,26.72
2018-09-01T08:24:03.180Z,26.63
2018-09-01T08:25:03.190Z,26.52
2018-09-01T08:26:03.268Z,26.43
2018-09-01T08:27:03.216Z,26.35
2018-09-01T08:28:03.210Z,26.17
2018-09-01T08:29:03.222Z,26.1
2018-09-01T08:30:03.226Z,25.94
2018-09-01T08:31:02.980Z,25.85
2018-09-01T08:32:03.241Z,25.83
2018-09-01T08:33:03.245Z,25.62
2018-09-01T08:34:03.347Z,25.4
2018-09-01T08:35:03.002Z,25.18
2018-09-01T08:36:03.258Z,25.09
2018-09-01T08:37:03.263Z,24.99
2018-09-01T08:38:02.763Z,24.83
2018-09-01T08:39:03.272Z,24.64
2018-09-01T08:40:03.297Z,24.47
2018-09-01T08:41:03.282Z,24.35
2018-09-01T08:42:03.034Z,24.18
2018-09-01T08:43:03.291Z,24.22
2018-09-01T08:44:03.294Z,24.12
2018-09-01T08:45:03.291Z,24.12
2018-09-01T08:46:03.293Z,24.12
2018-09-01T08:47:03.295Z,24.1
2018-09-01T08:48:03.305Z,23.84
2018-09-01T08:49:03.556Z,23.7
2018-09-01T08:50:03.304Z,23.63
2018-09-01T08:51:03.305Z,23.47
2018-09-01T08:52:03.310Z,23.33
2018-09-01T08:53:03.306Z,23.33
2018-09-01T08:54:03.079Z,23.33
2018-09-01T08:55:03.310Z,23.4
2018-09-01T08:56:03.311Z,23.47
2018-09-01T08:57:03.325Z,23.54
2018-09-01T08:58:03.309Z,23.5
2018-09-01T08:59:03.311Z,23.47
2018-09-01T09:00:03.313Z,23.38
2018-09-01T09:03:03.314Z,23.2
2018-09-01T09:04:03.315Z,23.23
2018-09-01T09:05:03.320Z,23.1
2018-09-01T09:06:03.317Z,23.01
2018-09-01T09:07:03.319Z,22.85
2018-09-01T09:08:03.322Z,22.83
2018-09-01T09:09:03.317Z,22.86
2018-09-01T09:10:02.813Z,22.77
2018-09-01T09:11:03.321Z,22.67
2018-09-01T09:12:03.064Z,22.64
2018-09-01T09:13:03.316Z,22.6
2018-09-01T09:14:03.313Z,22.77
2018-09-01T09:28:03.573Z,24.08
2018-09-01T09:29:03.067Z,24.09
2018-09-01T09:30:03.324Z,23.95
2018-09-01T09:31:03.321Z,23.85
2018-09-01T09:32:03.327Z,23.65
2018-09-01T09:33:04.748Z,23.58
2018-09-01T09:34:03.321Z,23.4
2018-09-01T09:35:03.320Z,23.35
2018-09-01T09:36:03.320Z,23.27
2018-09-01T09:37:03.320Z,23.23
2018-09-01T09:38:03.319Z,23.15
2018-09-01T09:39:03.323Z,23.15
2018-09-01T09:40:03.327Z,23.17
2018-09-01T09:41:03.321Z,23.22
2018-09-01T09:42:03.617Z,23.28
2018-09-01T09:43:03.070Z,23.38
2018-09-01T09:44:03.326Z,23.42
2018-09-01T09:45:03.320Z,23.39
2018-09-01T09:46:03.368Z,23.5
2018-09-01T09:47:03.325Z,23.57
2018-09-01T09:48:03.069Z,23.63
2018-09-01T09:49:03.335Z,23.7
2018-09-01T09:50:09.587Z,23.83
2018-09-01T09:51:16.054Z,23.87
2018-09-01T09:52:03.324Z,23.98
2018-09-01T10:09:03.580Z,23.48
2018-09-01T10:10:03.327Z,23.5
2018-09-01T10:11:03.495Z,23.47
2018-09-01T10:12:03.338Z,23.39
2018-09-01T10:13:03.075Z,23.48
2018-09-01T10:14:03.324Z,23.36
2018-09-01T10:15:03.331Z,23.36
2018-09-01T10:16:03.876Z,23.27
2018-09-01T10:17:03.324Z,23.22
2018-09-01T10:18:16.066Z,23.2
2018-09-01T10:19:03.331Z,23.12
2018-09-01T10:20:03.210Z,23.05
2018-09-01T10:21:03.080Z,23.09
2018-09-01T10:22:03.330Z,23.02
2018-09-01T10:23:03.330Z,23.01
2018-09-01T10:24:03.075Z,23.07
2018-09-01T10:25:03.328Z,23.12
2018-09-01T10:26:03.324Z,23.16
2018-09-01T10:27:03.703Z,23.2
2018-09-01T10:28:03.073Z,23.38
2018-09-01T10:29:03.328Z,23.55
2018-09-01T10:30:03.330Z,23.66
2018-09-01T10:31:03.331Z,23.66
2018-09-01T10:32:03.072Z,23.73
2018-09-01T10:33:03.353Z,23.79
2018-09-01T10:34:03.079Z,23.78
2018-09-01T10:35:03.076Z,23.75
2018-09-01T10:36:03.323Z,23.78
2018-09-01T10:37:03.326Z,23.84
2018-09-01T10:38:03.329Z,23.83
2018-09-01T10:39:03.333Z,23.94
2018-09-01T10:40:03.322Z,23.97
2018-09-01T10:41:03.327Z,24.13
2018-09-01T10:42:03.325Z,24.21
2018-09-01T10:43:03.332Z,24.35
2018-09-01T11:48:03.373Z,24.81
2018-09-01T11:49:03.369Z,24.73
2018-09-01T11:50:03.482Z,24.62
2018-09-01T11:51:03.372Z,24.77
2018-09-01T12:03:03.393Z,25.77
2018-09-01T12:04:03.573Z,25.87
2018-09-01T12:05:03.401Z,25.94
2018-09-01T12:06:03.391Z,25.91
2018-09-01T12:27:03.689Z,27.17
2018-09-01T12:28:03.459Z,27.28
2018-09-01T12:30:03.455Z,27.19
2018-09-01T12:31:03.456Z,27.02
2018-09-01T12:32:03.456Z,26.94
2018-09-01T12:33:03.453Z,26.87
2018-09-01T12:34:03.458Z,26.87
2018-09-01T12:35:03.463Z,26.97
2018-09-01T12:36:03.463Z,27.02
2018-09-01T12:37:03.463Z,27.1
2018-09-01T12:38:03.468Z,27
2018-09-01T12:39:03.473Z,27.12
2018-09-01T12:40:03.227Z,27.04
2018-09-01T12:41:03.226Z,27.03
2018-09-01T12:42:03.354Z,27.09
2018-09-01T12:43:03.232Z,26.95
2018-09-01T12:44:03.484Z,26.94
2018-09-01T12:45:03.497Z,27.03
2018-09-01T12:46:03.494Z,27.03
2018-09-01T12:47:03.495Z,27.02
2018-09-01T12:48:03.500Z,26.99
2018-09-01T12:49:03.505Z,27.17
2018-09-01T12:50:03.507Z,27.1
2018-09-01T12:51:03.503Z,27.12
2018-09-01T12:53:03.669Z,27.19
2018-09-01T12:54:03.263Z,27.17
2018-09-01T12:55:03.266Z,27.1
2018-09-01T12:56:03.530Z,27.12
2018-09-01T12:57:03.273Z,27.02
2018-09-01T12:58:03.529Z,27.04
2018-09-01T12:59:03.279Z,26.97
2018-09-01T13:00:03.537Z,27
2018-09-01T13:01:03.535Z,27.04
2018-09-01T13:02:03.541Z,26.95
2018-09-01T13:03:03.542Z,26.87
2018-09-01T13:04:03.543Z,26.81
2018-09-01T13:05:03.294Z,26.82
2018-09-01T13:06:03.549Z,26.7
2018-09-01T13:07:03.561Z,26.54
2018-09-01T13:08:03.712Z,26.55
2018-09-01T13:09:03.558Z,26.54
2018-09-01T13:10:03.310Z,26.73
2018-09-01T13:11:03.310Z,26.72
2018-09-01T13:12:03.575Z,26.76
2018-09-01T13:13:03.572Z,26.81
2018-09-01T13:14:03.321Z,26.88
2018-09-01T13:15:03.580Z,26.95
2018-09-01T13:16:03.587Z,27.06
2018-09-01T13:17:03.584Z,27.17
2018-09-01T13:18:03.594Z,27.14
2018-09-01T13:19:03.592Z,27.29
2018-09-01T13:20:03.590Z,27.31
2018-09-01T13:21:03.594Z,27.29
2018-09-01T13:22:06.089Z,27.32
2018-09-01T13:23:06.148Z,27.32
2018-09-01T13:25:03.607Z,27.34
2018-09-01T13:26:03.608Z,27.32
2018-09-01T13:27:03.357Z,27.25
2018-09-01T13:28:03.361Z,27.34
2018-09-01T13:29:03.864Z,27.32
2018-09-01T13:30:03.115Z,27.32
2018-09-01T13:31:03.365Z,27.29
2018-09-01T13:32:03.623Z,27.34
2018-09-01T13:33:03.623Z,27.22
2018-09-01T13:34:03.629Z,27.18
2018-09-01T13:35:03.632Z,27.09
2018-09-01T13:38:03.639Z,26.97
2018-09-01T13:39:04.019Z,27.02
2018-09-01T13:49:06.825Z,26.88
2018-09-01T13:51:03.423Z,26.67
2018-09-01T13:52:03.422Z,26.69
2018-09-01T13:53:03.423Z,26.6
2018-09-01T13:54:03.679Z,26.63
2018-09-01T13:55:03.685Z,26.4
2018-09-01T13:56:03.682Z,26.45
2018-09-01T13:57:03.683Z,26.37
2018-09-01T13:58:03.687Z,26.43
2018-09-01T13:59:03.689Z,26.54
2018-09-01T14:00:03.437Z,26.51
2018-09-01T14:01:03.694Z,26.6
2018-09-01T14:02:03.694Z,26.47
2018-09-01T14:03:03.701Z,26.47
2018-09-01T14:04:03.711Z,26.35
2018-09-01T14:05:03.702Z,26.23
2018-09-01T14:06:03.453Z,26.23
2018-09-01T14:07:03.709Z,26.26
2018-09-01T14:08:03.711Z,26.25
2018-09-01T14:09:03.460Z,26.18
2018-09-01T14:10:03.712Z,26.15
2018-09-01T14:11:03.723Z,26.13
2018-09-01T14:12:03.714Z,26.25
2018-09-01T14:13:03.475Z,26.13
2018-09-01T14:15:03.731Z,26.06
2018-09-01T14:16:09.993Z,26.01
2018-09-01T14:17:03.472Z,26.06
2018-09-01T14:18:03.477Z,26.06
2018-09-01T14:20:03.478Z,26.15
2018-09-01T14:21:03.852Z,26.05
2018-09-01T14:22:03.480Z,26.1
2018-09-01T14:23:03.737Z,26.01
2018-09-01T14:24:03.739Z,26.01
2018-09-01T14:26:03.742Z,25.83
2018-09-01T14:27:03.739Z,25.83
2018-09-01T14:28:03.752Z,25.7
2018-09-01T14:29:03.744Z,25.69
2018-09-01T14:30:03.744Z,25.76
2018-09-01T14:31:03.744Z,25.67
2018-09-01T14:32:03.753Z,25.77
2018-09-01T14:33:03.701Z,25.82
2018-09-01T14:34:05.033Z,25.85
2018-09-01T14:35:03.763Z,25.77
2018-09-01T14:36:08.772Z,25.69
2018-09-01T14:37:03.570Z,25.65
2018-09-01T14:38:03.505Z,25.62
2018-09-01T14:39:03.757Z,25.52
2018-09-01T14:40:03.506Z,25.35
2018-09-01T14:41:03.758Z,25.21
2018-09-01T14:42:03.516Z,25.21
2018-09-01T14:43:03.761Z,25.15
2018-09-01T14:44:03.511Z,25.17
2018-09-01T14:45:03.768Z,25.05
2018-09-01T14:46:03.772Z,25.08
2018-09-01T14:47:03.703Z,25.1
2018-09-01T14:48:03.772Z,25.15
2018-09-01T14:49:03.769Z,25.27
2018-09-01T14:50:03.778Z,25.28
2018-09-01T14:51:03.517Z,25.35
2018-09-01T14:52:03.776Z,25.27
2018-09-01T14:53:03.775Z,25.32
2018-09-01T14:54:03.773Z,25.35
2018-09-01T14:55:03.521Z,25.23
2018-09-01T14:56:03.523Z,25.15
2018-09-01T14:57:03.774Z,25.2
2018-09-01T14:58:03.527Z,25.08
2018-09-01T14:59:03.784Z,25.06
2018-09-01T15:00:03.781Z,25.06
2018-09-01T15:01:03.779Z,25.05
2018-09-01T15:02:03.530Z,24.93
2018-09-01T15:07:03.789Z,25.13
2018-09-01T15:08:03.282Z,25.13
2018-09-01T15:09:03.789Z,25.18
2018-09-01T15:10:03.284Z,25.18
2018-09-01T15:11:03.538Z,25.21
2018-09-01T15:12:03.792Z,25.06
2018-09-01T15:13:03.789Z,25.02
2018-09-01T15:14:03.792Z,24.93
2018-09-01T15:15:03.788Z,24.95
2018-09-01T15:16:03.789Z,24.85
2018-09-01T15:17:03.793Z,24.87
2018-09-01T15:18:03.539Z,24.78
2018-09-01T15:19:03.542Z,24.8
2018-09-01T15:20:03.543Z,24.8
2018-09-01T15:21:03.791Z,24.69
2018-09-01T15:22:03.543Z,24.71
2018-09-01T15:23:03.290Z,24.78
2018-09-01T15:24:03.543Z,24.81